createdAt,value
2019-02-27T00:01:23.266Z,8.35
2019-02-27T00:03:54.042Z,8.31
2019-02-27T00:06:24.797Z,8.26
2019-02-27T00:08:57.875Z,8.24
2019-02-27T00:11:28.222Z,8.27
2019-02-27T00:13:58.970Z,8.22
2019-02-27T00:16:29.730Z,8.23
2019-02-27T00:19:00.486Z,8.24
2019-02-27T00:21:31.243Z,8.24
2019-02-27T00:24:02.090Z,8.25
2019-02-27T00:26:32.852Z,8.30
2019-02-27T00:29:03.601Z,8.20
2019-02-27T00:31:34.366Z,8.16
2019-02-27T00:34:05.133Z,8.11
2019-02-27T00:36:35.904Z,8.01
2019-02-27T00:39:06.854Z,7.93
2019-02-27T00:41:37.613Z,7.95
2019-02-27T00:44:08.361Z,7.95
2019-02-27T00:46:39.117Z,7.93
2019-02-27T00:49:11.008Z,7.79
2019-02-27T00:51:44.668Z,7.72
2019-02-27T00:54:14.434Z,7.66
2019-02-27T00:56:45.719Z,7.53
2019-02-27T00:59:16.549Z,7.49
2019-02-27T01:01:47.982Z,7.44
2019-02-27T01:04:18.877Z,7.32
2019-02-27T01:06:49.646Z,7.02
2019-02-27T01:09:20.393Z,7.19
2019-02-27T01:11:51.805Z,7.18
2019-02-27T01:14:23.209Z,7.09
2019-02-27T01:16:53.969Z,7.15
2019-02-27T01:19:24.720Z,7.05
2019-02-27T01:21:55.485Z,7.00
2019-02-27T01:24:26.263Z,6.95
2019-02-27T01:26:57.043Z,6.87
2019-02-27T01:29:27.802Z,6.84
2019-02-27T01:31:58.561Z,6.77
2019-02-27T01:34:29.314Z,6.71
2019-02-27T01:37:00.073Z,6.76
2019-02-27T01:39:30.823Z,6.66
2019-02-27T01:42:01.583Z,6.65
2019-02-27T01:44:32.330Z,6.62
2019-02-27T01:47:03.124Z,6.60
2019-02-27T01:49:33.849Z,6.62
2019-02-27T01:52:04.614Z,6.65
2019-02-27T01:54:35.428Z,6.60
2019-02-27T01:57:06.233Z,6.62
2019-02-27T01:59:36.989Z,6.61
2019-02-27T02:02:07.748Z,6.48
2019-02-27T02:04:38.507Z,6.49
2019-02-27T02:07:09.266Z,6.42
2019-02-27T02:09:40.219Z,6.10
2019-02-27T02:12:17.008Z,6.29
2019-02-27T02:15:00.654Z,6.27
2019-02-27T02:17:35.215Z,6.24
2019-02-27T02:20:30.714Z,6.20
2019-02-27T02:23:29.766Z,6.09
2019-02-27T02:26:10.176Z,6.09
2019-02-27T02:29:14.808Z,6.12
2019-02-27T02:31:55.557Z,6.02
2019-02-27T02:34:45.566Z,6.01
2019-02-27T02:37:37.811Z,5.94
2019-02-27T02:40:14.648Z,5.79
2019-02-27T02:42:52.204Z,5.76
2019-02-27T02:45:32.931Z,5.76
2019-02-27T02:48:15.410Z,5.76
2019-02-27T02:51:10.048Z,5.74
2019-02-27T02:53:53.331Z,5.68
2019-02-27T02:56:36.660Z,5.63
2019-02-27T02:59:37.411Z,5.59
2019-02-27T03:02:11.985Z,5.58
2019-02-27T03:05:08.995Z,5.49
2019-02-27T03:07:58.498Z,5.51
2019-02-27T03:10:42.786Z,5.52
2019-02-27T03:13:21.535Z,5.41
2019-02-27T03:16:05.939Z,5.38
2019-02-27T03:18:55.840Z,5.31
2019-02-27T03:21:42.269Z,5.26
2019-02-27T03:24:28.379Z,5.26
2019-02-27T03:27:05.499Z,5.18
2019-02-27T03:29:43.146Z,5.07
2019-02-27T03:32:43.108Z,5.02
2019-02-27T03:35:34.692Z,5.09
2019-02-27T03:38:27.756Z,5.02
2019-02-27T03:41:05.460Z,5.00
2019-02-27T03:43:45.658Z,5.00
2019-02-27T03:46:33.234Z,4.97
2019-02-27T03:49:13.162Z,4.94
2019-02-27T03:52:09.437Z,4.92
2019-02-27T03:54:49.911Z,4.91
2019-02-27T03:57:27.607Z,4.87
2019-02-27T04:00:02.219Z,4.76
2019-02-27T04:02:42.080Z,4.79
2019-02-27T04:05:21.879Z,4.73
2019-02-27T04:08:21.163Z,4.67
2019-02-27T04:10:51.996Z,4.67
2019-02-27T04:13:26.400Z,4.61
2019-02-27T04:15:55.726Z,4.63
2019-02-27T04:18:28.386Z,4.62
2019-02-27T04:20:59.134Z,4.64
2019-02-27T04:23:29.933Z,4.70
2019-02-27T04:26:05.391Z,4.62
2019-02-27T04:28:36.288Z,4.67
2019-02-27T04:31:07.127Z,4.72
2019-02-27T04:33:37.931Z,4.74
2019-02-27T04:36:12.450Z,4.71
2019-02-27T04:38:41.571Z,4.74
2019-02-27T04:41:12.378Z,4.83
2019-02-27T04:43:43.183Z,4.84
2019-02-27T04:46:14.021Z,4.90
2019-02-27T04:48:44.839Z,4.66
2019-02-27T04:51:17.222Z,4.92
2019-02-27T04:53:48.378Z,5.00
2019-02-27T04:56:23.146Z,4.91
2019-02-27T04:58:51.886Z,4.94
2019-02-27T05:01:22.693Z,5.03
2019-02-27T05:03:53.552Z,4.78
2019-02-27T05:06:24.359Z,4.94
2019-02-27T05:08:55.159Z,4.86
2019-02-27T05:11:27.002Z,4.72
2019-02-27T05:13:57.911Z,4.71
2019-02-27T05:16:28.710Z,4.73
2019-02-27T05:19:03.711Z,4.77
2019-02-27T05:21:32.229Z,4.82
2019-02-27T05:24:05.196Z,4.83
2019-02-27T05:26:35.773Z,4.78
2019-02-27T05:29:06.592Z,4.77
2019-02-27T05:31:37.396Z,4.84
2019-02-27T05:34:12.727Z,4.78
2019-02-27T05:36:40.922Z,4.87
2019-02-27T05:39:11.754Z,4.80
2019-02-27T05:41:42.653Z,4.70
2019-02-27T05:44:13.476Z,4.66
2019-02-27T05:46:44.294Z,4.79
2019-02-27T05:49:15.123Z,4.72
2019-02-27T05:51:45.934Z,4.75
2019-02-27T05:54:16.756Z,4.71
2019-02-27T05:56:49.652Z,4.69
2019-02-27T05:59:20.263Z,4.67
2019-02-27T06:01:51.058Z,4.64
2019-02-27T06:04:24.968Z,4.68
2019-02-27T06:06:54.602Z,4.67
2019-02-27T06:09:25.424Z,4.62
2019-02-27T06:11:56.232Z,4.52
2019-02-27T06:14:27.052Z,4.44
2019-02-27T06:16:57.859Z,4.42
2019-02-27T06:19:30.561Z,4.45
2019-02-27T06:22:01.393Z,4.21
2019-02-27T06:24:32.194Z,4.44
2019-02-27T06:27:06.092Z,4.38
2019-02-27T06:29:35.707Z,4.39
2019-02-27T06:32:06.514Z,4.11
2019-02-27T06:34:37.333Z,4.38
2019-02-27T06:37:08.143Z,4.37
2019-02-27T06:39:39.780Z,4.40
2019-02-27T06:42:10.579Z,4.42
2019-02-27T06:44:41.380Z,4.43
2019-02-27T06:47:12.194Z,4.41
2019-02-27T06:49:42.995Z,4.50
2019-02-27T06:52:13.812Z,4.51
2019-02-27T06:54:44.622Z,4.59
2019-02-27T06:57:15.431Z,4.63
2019-02-27T06:59:46.228Z,4.62
2019-02-27T07:02:19.132Z,4.57
2019-02-27T07:04:49.763Z,4.57
2019-02-27T07:07:20.590Z,4.57
2019-02-27T07:09:51.409Z,4.57
2019-02-27T07:12:22.393Z,4.52
2019-02-27T07:14:53.249Z,4.63
2019-02-27T07:17:24.058Z,4.71
2019-02-27T07:19:54.901Z,4.65
2019-02-27T07:22:25.708Z,4.67
2019-02-27T07:24:56.521Z,4.68
2019-02-27T07:27:28.328Z,4.71
2019-02-27T07:30:00.056Z,4.76
2019-02-27T07:32:31.675Z,4.74
2019-02-27T07:35:04.681Z,4.74
2019-02-27T07:37:35.492Z,4.74
2019-02-27T07:40:09.815Z,4.75
2019-02-27T07:42:40.623Z,4.83
2019-02-27T07:45:19.947Z,4.80
2019-02-27T07:47:50.769Z,4.84
2019-02-27T07:50:21.873Z,4.90
2019-02-27T07:52:52.694Z,4.97
2019-02-27T07:55:26.726Z,4.95
2019-02-27T07:57:58.775Z,4.96
2019-02-27T08:00:28.938Z,4.99
2019-02-27T08:02:59.774Z,4.98
2019-02-27T08:05:30.794Z,4.98
2019-02-27T08:08:01.600Z,5.02
2019-02-27T08:10:36.703Z,5.03
2019-02-27T08:13:05.121Z,5.12
2019-02-27T08:15:35.953Z,5.18
2019-02-27T08:18:06.860Z,5.33
2019-02-27T08:20:37.785Z,5.33
2019-02-27T08:23:08.592Z,5.38
2019-02-27T08:25:39.418Z,5.43
2019-02-27T08:28:10.218Z,5.49
2019-02-27T08:30:41.062Z,5.58
2019-02-27T08:33:11.879Z,5.62
2019-02-27T08:35:42.694Z,5.47
2019-02-27T08:38:13.486Z,5.71
2019-02-27T08:40:44.308Z,5.76
2019-02-27T08:43:15.112Z,5.83
2019-02-27T08:45:45.918Z,5.90
2019-02-27T08:48:17.488Z,5.88
2019-02-27T08:50:48.867Z,5.97
2019-02-27T08:53:19.679Z,6.07
2019-02-27T08:55:50.503Z,6.07
2019-02-27T08:58:21.314Z,6.19
2019-02-27T09:00:52.235Z,6.27
2019-02-27T09:03:23.049Z,6.24
2019-02-27T09:05:54.696Z,6.31
2019-02-27T09:08:25.570Z,6.31
2019-02-27T09:10:56.376Z,6.43
2019-02-27T09:13:27.177Z,6.54
2019-02-27T09:15:57.986Z,6.60
2019-02-27T09:18:28.797Z,6.67
2019-02-27T09:20:59.900Z,6.83
2019-02-27T09:23:30.735Z,7.01
2019-02-27T09:26:02.801Z,7.36
2019-02-27T09:28:34.308Z,7.88
2019-02-27T09:31:05.125Z,8.50
2019-02-27T09:33:39.030Z,9.19
2019-02-27T09:36:10.352Z,9.83
2019-02-27T09:38:41.739Z,10.43
2019-02-27T09:41:13.098Z,11.05
2019-02-27T09:43:43.873Z,11.58
2019-02-27T09:46:19.266Z,12.03
2019-02-27T09:48:47.380Z,12.57
2019-02-27T09:51:19.142Z,13.09
2019-02-27T09:53:50.900Z,13.59
2019-02-27T09:56:21.737Z,14.00
2019-02-27T09:58:52.550Z,14.41
2019-02-27T10:01:23.473Z,14.84
2019-02-27T10:03:55.316Z,15.32
2019-02-27T10:06:26.316Z,15.73
2019-02-27T10:08:59.051Z,16.07
2019-02-27T10:11:29.863Z,16.38
2019-02-27T10:14:00.683Z,16.63
2019-02-27T10:16:34.629Z,16.86
2019-02-27T10:19:04.247Z,17.11
2019-02-27T10:21:35.068Z,17.35
2019-02-27T10:24:05.874Z,17.55
2019-02-27T10:26:36.682Z,17.55
2019-02-27T10:29:07.502Z,17.86
2019-02-27T10:31:38.332Z,18.13
2019-02-27T10:34:09.174Z,18.18
2019-02-27T10:36:40.053Z,18.18
2019-02-27T10:39:10.885Z,18.43
2019-02-27T10:41:41.747Z,18.43
2019-02-27T10:44:12.548Z,18.59
2019-02-27T10:46:43.377Z,18.72
2019-02-27T10:49:14.189Z,18.79
2019-02-27T10:51:45.055Z,18.76
2019-02-27T10:54:15.875Z,18.75
2019-02-27T10:56:46.720Z,18.64
2019-02-27T10:59:19.638Z,18.67
2019-02-27T11:01:50.262Z,18.54
2019-02-27T11:04:21.077Z,18.54
2019-02-27T11:06:51.900Z,18.58
2019-02-27T11:09:24.929Z,18.52
2019-02-27T11:11:55.742Z,18.59
2019-02-27T11:14:31.663Z,18.48
2019-02-27T11:17:02.429Z,18.38
2019-02-27T11:19:31.991Z,18.20
2019-02-27T11:22:02.849Z,18.09
2019-02-27T11:24:33.667Z,18.06
2019-02-27T11:27:06.187Z,17.94
2019-02-27T11:29:37.279Z,17.82
2019-02-27T11:32:08.079Z,17.82
2019-02-27T11:34:38.897Z,17.72
2019-02-27T11:37:12.697Z,17.76
2019-02-27T11:39:42.439Z,17.59
2019-02-27T11:42:13.252Z,17.58
2019-02-27T11:44:44.148Z,17.53
2019-02-27T11:47:15.035Z,17.53
2019-02-27T11:49:45.862Z,17.60
2019-02-27T11:52:16.661Z,17.61
2019-02-27T11:54:47.475Z,17.58
2019-02-27T11:57:18.469Z,17.56
2019-02-27T11:59:49.296Z,17.49
2019-02-27T12:02:28.618Z,17.44
2019-02-27T12:04:55.375Z,17.48
2019-02-27T12:07:25.688Z,17.38
2019-02-27T12:09:56.531Z,17.40
2019-02-27T12:12:27.375Z,17.43
2019-02-27T12:14:58.259Z,17.43
2019-02-27T12:17:29.038Z,17.47
2019-02-27T12:20:00.104Z,17.43
2019-02-27T12:22:32.961Z,17.41
2019-02-27T12:25:06.427Z,17.46
2019-02-27T12:27:48.783Z,17.43
2019-02-27T12:30:13.088Z,17.34
2019-02-27T12:32:43.909Z,17.26
2019-02-27T12:35:20.153Z,17.06
2019-02-27T12:37:50.987Z,17.02
2019-02-27T12:40:25.010Z,16.91
2019-02-27T12:42:54.695Z,16.80
2019-02-27T12:45:27.105Z,16.63
2019-02-27T12:47:59.554Z,16.51
2019-02-27T12:50:31.364Z,16.36
2019-02-27T12:53:02.391Z,16.38
2019-02-27T12:55:36.287Z,16.27
2019-02-27T12:58:05.940Z,16.26
2019-02-27T13:00:36.736Z,16.28
2019-02-27T13:03:09.313Z,16.31
2019-02-27T13:05:40.284Z,16.23
2019-02-27T13:08:11.409Z,16.14
2019-02-27T13:10:42.227Z,16.06
2019-02-27T13:13:13.046Z,16.08
2019-02-27T13:15:43.872Z,15.85
2019-02-27T13:18:14.681Z,15.80
2019-02-27T13:20:46.269Z,15.87
2019-02-27T13:23:17.143Z,15.65
2019-02-27T13:25:48.288Z,15.65
2019-02-27T13:28:19.115Z,15.80
2019-02-27T13:30:49.977Z,15.71
2019-02-27T13:33:20.850Z,15.63
2019-02-27T13:35:51.662Z,15.59
2019-02-27T13:38:22.498Z,15.57
2019-02-27T13:40:53.343Z,15.37
2019-02-27T13:43:26.705Z,15.36
2019-02-27T13:45:56.887Z,15.62
2019-02-27T13:48:27.724Z,15.62
2019-02-27T13:50:59.240Z,15.67
2019-02-27T13:53:31.274Z,15.68
2019-02-27T13:56:02.089Z,15.65
2019-02-27T13:58:35.749Z,15.74
2019-02-27T14:01:05.843Z,15.71
2019-02-27T14:03:36.678Z,15.71
2019-02-27T14:06:09.339Z,15.70
2019-02-27T14:08:40.341Z,15.68
2019-02-27T14:11:11.219Z,15.71
2019-02-27T14:13:43.980Z,15.59
2019-02-27T14:16:14.825Z,15.58
2019-02-27T14:18:49.797Z,15.57
2019-02-27T14:21:18.373Z,15.49
2019-02-27T14:23:49.198Z,15.49
2019-02-27T14:26:20.041Z,15.55
2019-02-27T14:28:52.222Z,15.53
2019-02-27T14:31:23.618Z,15.52
2019-02-27T14:33:55.036Z,15.54
2019-02-27T14:36:26.683Z,15.49
2019-02-27T14:38:57.487Z,15.53
2019-02-27T14:41:28.308Z,15.52
2019-02-27T14:43:59.457Z,15.48
2019-02-27T14:46:30.305Z,15.59
2019-02-27T14:49:01.140Z,15.59
2019-02-27T14:51:31.979Z,15.50
2019-02-27T14:54:02.986Z,15.39
2019-02-27T14:56:33.828Z,15.40
2019-02-27T14:59:04.632Z,15.40
2019-02-27T15:01:35.491Z,15.36
2019-02-27T15:04:06.329Z,15.30
2019-02-27T15:06:37.180Z,15.26
2019-02-27T15:09:08.010Z,15.26
2019-02-27T15:11:38.851Z,15.28
2019-02-27T15:14:09.690Z,15.23
2019-02-27T15:16:40.563Z,15.21
2019-02-27T15:19:11.389Z,15.16
2019-02-27T15:21:43.927Z,13.30
2019-02-27T15:24:15.927Z,15.19
2019-02-27T15:26:50.423Z,15.19
2019-02-27T15:29:19.531Z,15.20
2019-02-27T15:31:52.222Z,15.13
2019-02-27T15:34:23.101Z,15.01
2019-02-27T15:37:12.576Z,15.01
2019-02-27T15:39:43.487Z,15.04
2019-02-27T15:42:16.126Z,15.04
2019-02-27T15:44:47.080Z,15.04
2019-02-27T15:47:17.920Z,15.04
2019-02-27T15:49:54.523Z,14.95
2019-02-27T15:52:25.366Z,14.90
2019-02-27T15:54:59.182Z,14.90
2019-02-27T15:57:28.922Z,14.85
2019-02-27T15:59:59.739Z,14.82
2019-02-27T16:02:30.606Z,14.78
2019-02-27T16:05:01.626Z,14.67
2019-02-27T16:07:32.483Z,14.67
2019-02-27T16:10:08.139Z,14.62
2019-02-27T16:12:39.141Z,14.63
2019-02-27T16:15:16.486Z,14.50
2019-02-27T16:17:44.783Z,14.45
2019-02-27T16:20:24.303Z,14.41
2019-02-27T16:22:55.344Z,14.27
2019-02-27T16:25:27.301Z,14.20
2019-02-27T16:27:58.140Z,13.98
2019-02-27T16:30:33.138Z,13.98
2019-02-27T16:33:04.076Z,13.94
2019-02-27T16:35:34.986Z,13.74
2019-02-27T16:38:05.853Z,13.63
2019-02-27T16:40:36.669Z,13.55
2019-02-27T16:43:10.293Z,13.44
2019-02-27T16:45:40.281Z,13.36
2019-02-27T16:48:11.417Z,13.27
2019-02-27T16:50:42.336Z,13.15
2019-02-27T16:53:16.108Z,13.06
2019-02-27T16:55:45.906Z,12.93
2019-02-27T16:58:16.718Z,12.76
2019-02-27T17:00:47.624Z,12.61
2019-02-27T17:03:18.444Z,12.53
2019-02-27T17:05:49.817Z,12.35
2019-02-27T17:08:20.833Z,12.21
2019-02-27T17:10:52.078Z,12.11
2019-02-27T17:13:23.355Z,11.95
2019-02-27T17:15:54.192Z,11.72
2019-02-27T17:18:28.319Z,11.56
2019-02-27T17:20:57.751Z,11.54
2019-02-27T17:23:28.622Z,11.44
2019-02-27T17:26:03.401Z,11.37
2019-02-27T17:28:32.185Z,11.29
2019-02-27T17:31:02.984Z,11.21
2019-02-27T17:33:35.159Z,11.14
2019-02-27T17:36:06.639Z,11.07
2019-02-27T17:38:37.475Z,9.98
2019-02-27T17:41:09.791Z,10.98
2019-02-27T17:43:40.736Z,10.96
2019-02-27T17:46:11.643Z,10.96
2019-02-27T17:48:43.338Z,10.88
2019-02-27T17:51:15.159Z,10.74
2019-02-27T17:53:45.992Z,10.66
2019-02-27T17:56:16.790Z,10.49
2019-02-27T17:58:47.623Z,10.42
2019-02-27T18:01:24.918Z,10.26
2019-02-27T18:03:52.776Z,10.16
2019-02-27T18:06:23.545Z,10.16
2019-02-27T18:08:54.318Z,10.06
2019-02-27T18:11:25.076Z,10.07
2019-02-27T18:13:55.867Z,9.99
2019-02-27T18:16:27.337Z,9.99
2019-02-27T18:18:58.874Z,9.90
2019-02-27T18:21:33.235Z,9.89
2019-02-27T18:24:02.658Z,9.82
2019-02-27T18:26:33.518Z,9.73
2019-02-27T18:29:07.560Z,9.71
2019-02-27T18:31:37.097Z,9.71
2019-02-27T18:34:07.849Z,9.66
2019-02-27T18:36:42.860Z,9.61
2019-02-27T18:39:11.281Z,9.48
2019-02-27T18:41:42.039Z,9.40
2019-02-27T18:44:12.899Z,9.36
2019-02-27T18:46:43.660Z,9.33
2019-02-27T18:49:15.258Z,9.31
2019-02-27T18:51:47.138Z,9.21
2019-02-27T18:54:21.797Z,9.25
2019-02-27T18:56:50.569Z,9.25
2019-02-27T18:59:21.456Z,9.24
2019-02-27T19:01:52.210Z,9.20
2019-02-27T19:04:23.160Z,9.21
2019-02-27T19:06:53.932Z,9.20
2019-02-27T19:09:24.742Z,9.10
2019-02-27T19:11:55.499Z,9.05
2019-02-27T19:14:26.270Z,8.91
2019-02-27T19:16:57.031Z,8.90
2019-02-27T19:19:27.799Z,8.88
2019-02-27T19:21:58.554Z,8.83
2019-02-27T19:24:29.326Z,8.74
2019-02-27T19:27:00.084Z,8.46
2019-02-27T19:29:31.935Z,8.70
2019-02-27T19:32:03.458Z,8.67
2019-02-27T19:34:34.222Z,8.65
2019-02-27T19:37:05.249Z,8.71
2019-02-27T19:39:36.682Z,8.67
2019-02-27T19:42:07.457Z,8.66
2019-02-27T19:44:38.212Z,8.63
2019-02-27T19:47:08.974Z,8.64
2019-02-27T19:49:39.775Z,8.54
2019-02-27T19:52:10.542Z,8.49
2019-02-27T19:54:41.297Z,8.42
2019-02-27T19:57:12.068Z,8.34
2019-02-27T19:59:42.828Z,8.36
2019-02-27T20:02:13.597Z,8.32
2019-02-27T20:04:45.989Z,8.28
2019-02-27T20:07:16.858Z,8.19
2019-02-27T20:09:51.383Z,8.14
2019-02-27T20:12:22.252Z,8.15
2019-02-27T20:14:53.005Z,8.05
2019-02-27T20:17:26.632Z,8.02
2019-02-27T20:19:56.538Z,7.97
2019-02-27T20:22:27.337Z,7.92
2019-02-27T20:24:58.126Z,7.65
2019-02-27T20:27:28.912Z,7.84
2019-02-27T20:29:59.670Z,7.82
2019-02-27T20:32:30.430Z,7.76
2019-02-27T20:35:01.231Z,7.77
2019-02-27T20:37:32.110Z,7.73
2019-02-27T20:40:05.075Z,7.73
2019-02-27T20:42:35.846Z,7.70
2019-02-27T20:45:10.006Z,7.67
2019-02-27T20:47:40.959Z,7.67
2019-02-27T20:50:21.937Z,7.68
2019-02-27T20:52:50.953Z,7.71
2019-02-27T20:55:21.722Z,7.69
2019-02-27T20:57:52.487Z,7.69
2019-02-27T21:00:23.619Z,7.60
2019-02-27T21:02:54.386Z,7.46
2019-02-27T21:05:25.449Z,7.18
2019-02-27T21:08:00.742Z,7.44
2019-02-27T21:10:30.487Z,7.29
2019-02-27T21:13:01.284Z,7.29
2019-02-27T21:15:33.470Z,7.29
2019-02-27T21:18:04.507Z,7.28
2019-02-27T21:20:35.269Z,7.08
2019-02-27T21:23:06.036Z,7.31
2019-02-27T21:25:36.794Z,7.27
2019-02-27T21:28:07.943Z,7.23
2019-02-27T21:30:38.731Z,7.20
2019-02-27T21:33:11.165Z,7.14
2019-02-27T21:35:42.200Z,7.14
2019-02-27T21:38:12.959Z,7.15
2019-02-27T21:40:43.710Z,7.09
2019-02-27T21:43:15.015Z,7.05
2019-02-27T21:45:46.064Z,7.01
2019-02-27T21:48:16.849Z,6.99
2019-02-27T21:50:47.623Z,6.99
2019-02-27T21:53:18.390Z,7.00
2019-02-27T21:55:49.141Z,5.86
2019-02-27T21:58:20.749Z,6.95
2019-02-27T22:00:51.570Z,6.91
2019-02-27T22:03:22.343Z,6.81
2019-02-27T22:05:53.756Z,6.81
2019-02-27T22:08:25.247Z,6.86
2019-02-27T22:10:56.041Z,6.76
2019-02-27T22:13:30.271Z,6.67
2019-02-27T22:15:59.506Z,6.69
2019-02-27T22:18:30.272Z,6.66
2019-02-27T22:21:01.052Z,6.68
2019-02-27T22:23:31.822Z,6.62
2019-02-27T22:26:03.471Z,6.64
2019-02-27T22:28:35.013Z,6.60
2019-02-27T22:31:06.639Z,6.63
2019-02-27T22:33:38.433Z,6.62
2019-02-27T22:36:12.623Z,6.63
2019-02-27T22:38:41.857Z,6.54
2019-02-27T22:41:12.610Z,6.54
2019-02-27T22:43:43.380Z,6.47
2019-02-27T22:46:16.498Z,6.42
2019-02-27T22:48:47.050Z,6.38
2019-02-27T22:51:17.806Z,6.40
2019-02-27T22:53:48.807Z,6.36
2019-02-27T22:56:19.569Z,6.24
2019-02-27T22:58:51.655Z,6.17
2019-02-27T23:01:24.727Z,6.20
2019-02-27T23:03:58.004Z,6.18
2019-02-27T23:06:28.687Z,6.15
2019-02-27T23:08:59.455Z,5.89
2019-02-27T23:11:30.455Z,6.12
2019-02-27T23:14:01.344Z,6.05
2019-02-27T23:16:32.102Z,6.02
2019-02-27T23:19:03.451Z,5.95
2019-02-27T23:21:34.222Z,5.91
2019-02-27T23:24:07.111Z,4.69
2019-02-27T23:26:37.757Z,5.86
2019-02-27T23:29:08.507Z,5.89
2019-02-27T23:31:39.269Z,5.88
2019-02-27T23:34:10.040Z,5.92
2019-02-27T23:36:40.806Z,5.92
2019-02-27T23:39:11.561Z,5.94
2019-02-27T23:41:42.326Z,5.91
2019-02-27T23:44:13.085Z,5.89
2019-02-27T23:46:49.628Z,5.91
2019-02-27T23:49:16.521Z,5.85
2019-02-27T23:51:48.449Z,5.95
2019-02-27T23:54:19.250Z,5.88
2019-02-27T23:56:51.897Z,5.87
2019-02-27T23:59:22.722Z,5.92
